METAR Data
IDs: Format: Raw Decoded Include TAF

Data at: 0529 UTC 26 Sep 2018

KSLB 260515Z AUTO 26008KT 10SM CLR 08/07 A3011 RMK AO2
KSLB 260455Z AUTO 27007KT 10SM CLR 08/07 A3011 RMK AO2
KSLB 260435Z AUTO 27008KT 10SM CLR 09/07 A3011 RMK AO2
KSLB 260415Z AUTO 27008KT 10SM CLR 09/07 A3011 RMK AO2
KSLB 260355Z AUTO 27007KT 10SM CLR 09/07 A3011 RMK AO2
KSLB 260335Z AUTO 27008KT 10SM CLR 08/07 A3011 RMK AO2
KSLB 260315Z AUTO 28007KT 10SM CLR 08/07 A3011 RMK AO2
KSLB 260255Z AUTO 26005KT 10SM CLR 09/07 A3010 RMK AO2
KSLB 260235Z AUTO 27006KT 10SM CLR 09/07 A3010 RMK AO2
KSLB 260215Z AUTO 27006KT 10SM CLR 09/07 A3010 RMK AO2
KSLB 260155Z AUTO 28007KT 10SM CLR 09/07 A3010 RMK AO2
KSLB 260135Z AUTO 27006KT 10SM CLR 09/07 A3009 RMK AO2
KSLB 260115Z AUTO 27005KT 10SM CLR 10/07 A3009 RMK AO2
KSLB 260055Z AUTO 28005KT 10SM CLR 11/07 A3007 RMK AO2
KSLB 260035Z AUTO 30006KT 10SM CLR 11/07 A3006 RMK AO2
KSLB 260015Z AUTO 30005KT 10SM CLR 12/07 A3006 RMK AO2
KSLB 252355Z AUTO 30006KT 10SM CLR 13/07 A3005 RMK AO2
KSLB 252335Z AUTO 31011KT 10SM CLR 14/07 A3005 RMK AO2
KSLB 252315Z AUTO 31009KT 10SM FEW036 14/07 A3004 RMK AO2
KSLB 252255Z AUTO 32010G19KT 10SM SCT035 14/07 A3004 RMK AO2
KSLB 252235Z AUTO 32011G18KT 10SM FEW033 FEW050 14/07 A3003 RMK AO2
KSLB 252215Z AUTO 31016G21KT 10SM CLR 14/07 A3003 RMK AO2
KSLB 252155Z AUTO 31012G19KT 10SM 14/07 A3002 RMK AO2
KSLB 252135Z AUTO 33013G20KT 10SM 13/07 A3002 RMK AO2
KSLB 252115Z AUTO 34011G20KT 10SM 14/08 A3002 RMK AO2
KSLB 252055Z AUTO 33010G21KT 10SM 14/08 A3001 RMK AO2
KSLB 252035Z AUTO 33014G22KT 10SM 13/08 A3001 RMK AO2
KSLB 252015Z AUTO 31015G22KT 10SM 14/08 A3001 RMK AO2
KSLB 251955Z AUTO 32017KT 10SM 13/09 A3000 RMK AO2
KSLB 251935Z AUTO 31016KT 10SM 14/10 A3000 RMK AO2
KSLB 251915Z AUTO 31011G16KT 10SM 13/10 A3001 RMK AO2
KSLB 251855Z AUTO 31014KT 10SM 13/10 A3001 RMK AO2
KSLB 251835Z AUTO 33009G15KT 10SM 12/10 A3001 RMK AO2
KSLB 251815Z AUTO 32009G15KT 10SM 11/10 A3000 RMK AO2
KSLB 251755Z AUTO 33012KT 10SM 11/10 A2999 RMK AO2
KSLB 251735Z AUTO 33009G18KT 10SM BKN010 11/10 A2998 RMK AO2
KSLB 251715Z AUTO 34011KT 10SM 11/10 A2998 RMK AO2
KSLB 251655Z AUTO 35012KT 9SM 11/11 A2994 RMK AO2
KSLB 251635Z AUTO 01010KT 4SM -RA CLR 10/10 A2995 RMK AO2
KSLB 251615Z AUTO 34012KT 7SM -RA FEW009 10/10 A2998 RMK AO2
KSLB 251555Z AUTO 36009KT 10/10 A2996 RMK AO2 P0001
KSLB 251535Z AUTO 01012KT 10SM CLR 10/10 A2994 RMK AO2
KSLB 251515Z AUTO 36012KT 4SM -RA FEW004 FEW013 10/10 A2993 RMK AO2
KSLB 251455Z AUTO 02008KT 1 3/4SM +RA BKN004 BKN038 10/10 A2994 RMK AO2 P0015
KSLB 251435Z AUTO 01010KT 2SM RA BKN005 BKN013 BKN047 11/10 A2994 RMK AO2
KSLB 251415Z AUTO 01010G15KT 330V030 2SM +RA BKN005 11/10 A2994 RMK AO2
KSLB 251355Z AUTO 01010G17KT 3SM -RA BKN004 11/11 A2992 RMK AO2 P0001
KSLB 251335Z AUTO 02011KT 9SM OVC004 11/11 A2992 RMK AO2
KSLB 251315Z AUTO 02012KT 9SM BKN004 11/11 A2992 RMK AO2
KSLB 251255Z AUTO 01008G14KT 340V040 10SM BKN005 11/11 A2991 RMK AO2
KSLB 251235Z AUTO 02010KT 10SM OVC004 12/11 A2991 RMK AO2
KSLB 251215Z AUTO 02007G12KT 10SM OVC005 12/11 A2990 RMK AO2
KSLB 251155Z AUTO 02008KT 10SM OVC006 12/11 A2992 RMK AO2
KSLB 251135Z AUTO 04008KT 10SM OVC006 12/11 A2991 RMK AO2
KSLB 251115Z AUTO 03007G15KT 360V060 10SM OVC005 12/11 A2989 RMK AO2
KSLB 251055Z AUTO 04010KT 10SM OVC005 12/11 A2989 RMK AO2
KSLB 251035Z AUTO 05011KT 10SM OVC004 12/12 A2989 RMK AO2
KSLB 251015Z AUTO 04011KT 9SM OVC005 12/12 A2989 RMK AO2
KSLB 250955Z AUTO 03012KT 8SM BKN004 OVC008 12/12 A2989 RMK AO2
KSLB 250935Z AUTO 02009KT 6SM BR BKN004 OVC008 12/12 A2990 RMK AO2
KSLB 250915Z AUTO 02011G16KT 4SM BR OVC004 13/12 A2990 RMK AO2
KSLB 250855Z AUTO 36010KT 4SM BR OVC004 13/12 A2991 RMK AO2
KSLB 250835Z AUTO 02011KT 5SM BR OVC004 13/13 A2991 RMK AO2
KSLB 250815Z AUTO 01009KT 9SM OVC005 14/13 A2991 RMK AO2
KSLB 250735Z AUTO 36008KT 10SM OVC009 14/13 A2991 RMK AO2
KSLB 250715Z AUTO 35005KT 10SM BKN009 OVC015 14/14 A2990 RMK AO2
KSLB 250655Z AUTO 33005KT 10SM OVC015 14/13 A2989 RMK AO2
KSLB 250635Z AUTO 33004KT 10SM OVC013 14/14 A2989 RMK AO2
KSLB 250615Z AUTO 31005KT 10SM BKN013 BKN047 OVC060 14/14 A2989 RMK AO2
KSLB 250555Z AUTO 32005KT 10SM SCT013 BKN036 BKN047 15/14 A2989 RMK AO2
KSLB 250535Z AUTO 32005KT 10SM SCT037 BKN050 14/14 A2989 RMK AO2
KSLB 250515Z AUTO 00000KT 10SM FEW014 SCT037 BKN042 15/14 A2989 RMK AO2
KSLB 250455Z AUTO 31004KT 10SM SCT037 SCT042 BKN055 15/14 A2990 RMK AO2
KSLB 250435Z AUTO 00000KT 10SM BKN055 BKN070 15/14 A2989 RMK AO2
KSLB 250415Z AUTO 33003KT 10SM OVC055 15/14 A2989 RMK AO2
KSLB 250355Z AUTO 00000KT 10SM BKN060 15/14 A2989 RMK AO2
KSLB 250335Z AUTO 34004KT 10SM BKN060 15/14 A2989 RMK AO2
KSLB 250315Z AUTO 32004KT 10SM OVC065 16/14 A2989 RMK AO2
KSLB 250255Z AUTO 34003KT 10SM BKN060 BKN070 16/14 A2988 RMK AO2
KSLB 250235Z AUTO 00000KT 10SM BKN060 BKN070 16/14 A2988 RMK AO2
KSLB 250215Z AUTO 31007KT 10SM BKN060 BKN070 17/14 A2986 RMK AO2
KSLB 250155Z AUTO 31007KT 10SM FEW041 FEW048 OVC060 17/14 A2986 RMK AO2
KSLB 250135Z AUTO 31006KT 10SM SCT043 SCT049 OVC060 17/15 A2985 RMK AO2
KSLB 250115Z AUTO 32006KT 10SM FEW043 BKN050 BKN060 18/15 A2984 RMK AO2
KSLB 250055Z AUTO 32008KT 10SM OVC046 18/15 A2984 RMK AO2
KSLB 250035Z AUTO 31006KT 10SM BKN046 17/15 A2983 RMK AO2
KSLB 250015Z AUTO 32006KT 10SM CLR 18/14 A2982 RMK AO2
KSLB 242355Z AUTO 32006KT 10SM CLR 18/15 A2982 RMK AO2
KSLB 242335Z AUTO 32006KT 10SM CLR 19/15 A2981 RMK AO2
KSLB 242315Z AUTO 30008KT 10SM CLR 20/15 A2982 RMK AO2
KSLB 242255Z AUTO 30009KT 10SM CLR 20/15 A2981 RMK AO2
KSLB 242235Z AUTO 30009KT 10SM CLR 21/15 A2981 RMK AO2
KSLB 242215Z AUTO 29013KT 10SM CLR 22/15 A2981 RMK AO2
KSLB 242155Z AUTO 30009G16KT 10SM CLR 23/15 A2981 RMK AO2
KSLB 242135Z AUTO 25011KT 10SM CLR 24/15 A2981 RMK AO2
KSLB 242115Z AUTO 23009G20KT 10SM CLR 24/15 A2982 RMK AO2
KSLB 242055Z AUTO 21010G18KT 10SM CLR 24/14 A2981 RMK AO2
KSLB 242035Z AUTO 24013KT 10SM CLR 25/14 A2982 RMK AO2
KSLB 242015Z AUTO 22013G21KT 10SM CLR 25/14 A2982 RMK AO2
KSLB 241955Z AUTO 21013KT 10SM CLR 25/14 A2982 RMK AO2
KSLB 241935Z AUTO 22015G21KT 10SM CLR 26/14 A2983 RMK AO2
KSLB 241915Z AUTO 20013G21KT 10SM CLR 26/14 A2983 RMK AO2
KSLB 241855Z AUTO 19012G18KT 10SM CLR 25/14 A2984 RMK AO2
KSLB 241835Z AUTO 19011G19KT 10SM CLR 25/14 A2985 RMK AO2
KSLB 241815Z AUTO 20011G20KT 10SM CLR 24/14 A2985 RMK AO2
KSLB 241755Z AUTO 20015KT 10SM CLR 24/14 A2985 RMK AO2
KSLB 241735Z AUTO 20013G21KT 10SM CLR 24/14 A2985 RMK AO2